Terminal Aerodrome Forecast
Issued by NWS

Home | Current Version | Previous Version | Text Only | Print | Product List | Glossary On
Versions: 1 2 3 4 5 6 7 8 9 10 11 12 13 14 15 16 17 18 19 20 21 22 23 24 25
000
FTUS44 KLZK 291743
TAFBPK
TAF
KBPK 291743Z 2918/3018 19010G18KT P6SM BKN035 OVC040
      TEMPO 2920/2924 VRB20G30KT 1SM +TSRA OVC015CB
     FM300000 17012G22KT 3SM -TSRA OVC012CB
     FM300300 16010G20KT 6SM BR VCSH BKN012 OVC025
     FM300600 17010KT 4SM SHRA VCTS BKN012 OVC025CB=

USA.gov is the U.S. government's official web portal to all federal, state and local government web resources and services.